Time;durP1;ratioP1;P1;durP2;ratioP2;P2;SDS_P1;SDS_P2;PMS_P1;PMS_P2;Temp;Humidity;BMP_temperature;BMP_pressure;BME280_temperature;BME280_humidity;BME280_pressure;Samples;Min_cycle;Max_cycle;Signal;HPM_P1;HPM_P2
2024/01/20 00:00:24;;;;;;;6.60;4.22;;;-1.30;99.90;;;;;;5051552;28;20234;-71
2024/01/20 00:02:51;;;;;;;9.35;4.72;;;-1.40;99.90;;;;;;5043631;27;20241;-71
2024/01/20 00:05:18;;;;;;;6.82;5.25;;;-1.40;99.90;;;;;;5043328;28;20564;-71
2024/01/20 00:07:45;;;;;;;6.57;4.07;;;-1.70;99.90;;;;;;5043491;28;20204;-72
2024/01/20 00:10:11;;;;;;;10.52;5.88;;;-1.70;99.90;;;;;;5039369;28;20604;-71
2024/01/20 00:12:39;;;;;;;14.98;6.35;;;-1.50;99.90;;;;;;5039574;28;20290;-72
2024/01/20 00:15:09;;;;;;;7.75;6.00;;;-1.30;99.90;;;;;;5039442;28;20213;-71
2024/01/20 00:17:37;;;;;;;13.57;7.35;;;-1.40;99.90;;;;;;5047923;27;20236;-72
2024/01/20 00:20:05;;;;;;;9.65;7.13;;;-1.40;99.90;;;;;;5036407;27;20244;-72
2024/01/20 00:22:32;;;;;;;8.23;5.90;;;-1.40;99.90;;;;;;5036119;28;20205;-72
2024/01/20 00:25:00;;;;;;;7.10;5.07;;;-1.30;99.90;;;;;;5035031;28;20214;-72
2024/01/20 00:27:28;;;;;;;10.18;8.70;;;-1.50;99.90;;;;;;5046724;27;20481;-71
2024/01/20 00:29:55;;;;;;;11.32;5.55;;;-1.50;99.90;;;;;;5037773;28;20207;-72
2024/01/20 00:32:23;;;;;;;8.63;5.75;;;-1.40;99.90;;;;;;5054361;28;20205;-72
2024/01/20 00:34:50;;;;;;;7.80;5.88;;;-1.60;99.90;;;;;;5064214;28;20216;-72
2024/01/20 00:37:16;;;;;;;12.90;7.97;;;-1.60;99.90;;;;;;5047395;28;20204;-72
2024/01/20 00:39:43;;;;;;;11.07;5.97;;;-1.50;99.90;;;;;;5058923;28;20219;-72
2024/01/20 00:42:10;;;;;;;5.05;4.55;;;-1.30;99.90;;;;;;5054328;27;20223;-72
2024/01/20 00:44:37;;;;;;;16.50;6.43;;;-1.40;99.90;;;;;;5048303;28;20201;-72
2024/01/20 00:47:03;;;;;;;11.38;6.00;;;-1.40;99.90;;;;;;5052332;28;20415;-72
2024/01/20 00:49:32;;;;;;;7.95;7.15;;;-1.40;99.90;;;;;;5048269;28;20201;-72
2024/01/20 00:51:58;;;;;;;13.23;6.00;;;-1.50;99.90;;;;;;5044291;28;20635;-72
2024/01/20 00:54:25;;;;;;;16.17;6.93;;;-1.70;99.90;;;;;;5046873;28;20203;-72
2024/01/20 00:56:52;;;;;;;8.95;4.70;;;-1.80;99.90;;;;;;5048178;27;20204;-71
2024/01/20 00:59:19;;;;;;;9.13;6.20;;;-1.70;99.90;;;;;;5049071;28;20208;-71
2024/01/20 01:01:46;;;;;;;11.90;8.68;;;-1.60;99.90;;;;;;5069350;27;20304;-72
2024/01/20 01:04:14;;;;;;;12.15;7.18;;;-1.50;99.90;;;;;;5052467;28;20201;-71
2024/01/20 01:06:43;;;;;;;13.80;6.70;;;-1.50;99.90;;;;;;5052699;28;20198;-72
2024/01/20 01:09:10;;;;;;;7.80;5.20;;;-1.70;99.90;;;;;;5049192;28;20231;-72
2024/01/20 01:11:38;;;;;;;10.50;6.90;;;-1.90;99.90;;;;;;5044531;28;20641;-72
2024/01/20 01:14:06;;;;;;;7.85;6.60;;;-1.80;99.90;;;;;;5041412;28;20221;-72
2024/01/20 01:16:32;;;;;;;10.38;5.40;;;-1.70;99.90;;;;;;5035960;28;20266;-72
2024/01/20 01:18:59;;;;;;;13.55;6.55;;;-1.80;99.90;;;;;;5051005;27;20220;-72
2024/01/20 01:21:26;;;;;;;11.07;6.78;;;-1.70;99.90;;;;;;5045266;28;20339;-71
2024/01/20 01:23:54;;;;;;;11.38;6.22;;;-1.60;99.90;;;;;;5041980;28;20288;-72
2024/01/20 01:26:21;;;;;;;12.50;4.80;;;-1.70;99.90;;;;;;5042589;28;20247;-72
2024/01/20 01:28:48;;;;;;;8.02;7.22;;;-1.70;99.90;;;;;;5028641;28;20205;-72
2024/01/20 01:31:14;;;;;;;7.43;5.93;;;-1.70;99.90;;;;;;5046800;28;20200;-72
2024/01/20 01:33:41;;;;;;;12.25;8.38;;;-1.80;99.90;;;;;;5057944;28;20212;-72
2024/01/20 01:36:08;;;;;;;7.60;6.00;;;-1.80;99.90;;;;;;5064030;28;20210;-72
2024/01/20 01:38:35;;;;;;;7.55;4.05;;;-1.80;99.90;;;;;;5050868;28;20205;-72
2024/01/20 01:41:03;;;;;;;10.68;5.45;;;-1.80;99.90;;;;;;5058032;28;20221;-72
2024/01/20 01:43:30;;;;;;;9.88;5.53;;;-2.00;99.90;;;;;;5055548;28;20205;-72
2024/01/20 01:45:56;;;;;;;10.52;6.18;;;-1.80;99.90;;;;;;5055607;28;20661;-72
2024/01/20 01:48:33;;;;;;;11.68;7.15;;;-1.70;99.90;;;;;;5132569;27;20738;-73
2024/01/20 01:51:03;;;;;;;7.97;6.28;;;-1.70;99.90;;;;;;5134218;27;20216;-72
2024/01/20 01:53:31;;;;;;;6.53;5.10;;;-1.90;99.90;;;;;;5131278;27;20651;-72
2024/01/20 01:56:00;;;;;;;12.93;6.03;;;-1.90;99.90;;;;;;5128989;27;20684;-72
2024/01/20 01:58:27;;;;;;;10.82;6.00;;;-2.20;99.90;;;;;;5138701;27;20212;-72
2024/01/20 02:00:54;;;;;;;10.35;7.00;;;-2.10;99.90;;;;;;5125594;27;20206;-72
2024/01/20 02:03:21;;;;;;;12.43;5.20;;;-2.20;99.90;;;;;;5132841;27;20198;-72
2024/01/20 02:05:50;;;;;;;11.55;5.85;;;-2.00;99.90;;;;;;5126011;27;20198;-72
2024/01/20 02:08:17;;;;;;;7.63;6.55;;;-2.10;99.90;;;;;;5134358;27;20232;-72
2024/01/20 02:10:46;;;;;;;7.40;5.88;;;-2.10;99.90;;;;;;5127686;27;20241;-72
2024/01/20 02:13:14;;;;;;;10.40;5.35;;;-2.00;99.90;;;;;;5122179;27;20691;-72
2024/01/20 02:15:41;;;;;;;10.70;7.18;;;-1.90;99.90;;;;;;5112206;28;20200;-72
2024/01/20 02:18:09;;;;;;;11.23;6.53;;;-2.00;99.90;;;;;;5128781;27;20202;-72
2024/01/20 02:20:36;;;;;;;18.25;7.22;;;-1.90;99.90;;;;;;5127160;27;20194;-72
2024/01/20 02:23:05;;;;;;;15.85;8.27;;;-1.90;99.90;;;;;;5127377;27;20605;-73
2024/01/20 02:25:34;;;;;;;11.90;7.22;;;-2.10;99.90;;;;;;5126927;27;20193;-72
2024/01/20 02:28:02;;;;;;;7.70;6.15;;;-1.90;99.90;;;;;;5127760;27;20233;-72
2024/01/20 02:30:30;;;;;;;12.45;9.13;;;-2.00;99.90;;;;;;5126424;27;20213;-72
2024/01/20 02:32:58;;;;;;;17.30;6.65;;;-2.10;99.90;;;;;;5120699;27;20276;-72
2024/01/20 02:35:26;;;;;;;7.70;6.18;;;-2.00;99.90;;;;;;5127616;27;20612;-72
2024/01/20 02:37:53;;;;;;;10.32;6.25;;;-2.10;99.90;;;;;;5136145;27;20750;-72
2024/01/20 02:40:23;;;;;;;14.65;5.63;;;-2.20;99.90;;;;;;5135698;27;20199;-72
2024/01/20 02:42:50;;;;;;;13.68;6.75;;;-2.10;99.90;;;;;;5141099;27;20277;-72
2024/01/20 02:45:17;;;;;;;8.80;7.00;;;-2.00;99.90;;;;;;5142501;27;20220;-72
2024/01/20 02:47:44;;;;;;;4.93;4.43;;;-2.10;99.90;;;;;;5127804;27;20237;-72
2024/01/20 02:50:12;;;;;;;6.45;5.10;;;-2.20;99.90;;;;;;5128692;27;20293;-72
2024/01/20 02:52:39;;;;;;;8.43;5.53;;;-2.30;99.90;;;;;;5133233;27;20186;-72
2024/01/20 02:55:06;;;;;;;14.73;5.82;;;-2.40;99.90;;;;;;5127694;27;20655;-74
2024/01/20 02:57:35;;;;;;;4.53;4.13;;;-2.20;99.90;;;;;;5130240;27;20231;-72
2024/01/20 03:00:04;;;;;;;11.70;6.97;;;-2.10;99.90;;;;;;5112386;27;20194;-72
2024/01/20 03:02:32;;;;;;;8.90;6.35;;;-2.20;99.90;;;;;;5110767;28;20732;-72
2024/01/20 03:05:01;;;;;;;5.63;5.03;;;-2.20;99.90;;;;;;5107877;28;20198;-72
2024/01/20 03:07:29;;;;;;;8.65;5.93;;;-2.10;99.90;;;;;;5108689;28;20293;-72
2024/01/20 03:09:56;;;;;;;9.75;5.15;;;-2.20;99.90;;;;;;5114997;27;20198;-72
2024/01/20 03:12:24;;;;;;;13.98;7.75;;;-2.00;99.90;;;;;;5110319;27;20297;-72
2024/01/20 03:14:54;;;;;;;9.98;7.82;;;-2.00;99.90;;;;;;5113449;27;20206;-73
2024/01/20 03:17:21;;;;;;;8.10;6.05;;;-2.00;99.90;;;;;;5111849;27;20671;-72
2024/01/20 03:19:49;;;;;;;8.38;6.88;;;-1.90;99.90;;;;;;5114654;27;20201;-72
2024/01/20 03:22:16;;;;;;;8.55;6.25;;;-2.00;99.90;;;;;;5113050;27;20207;-72
2024/01/20 03:24:44;;;;;;;8.60;6.72;;;-2.00;99.90;;;;;;5114173;27;20197;-72
2024/01/20 03:27:11;;;;;;;9.80;6.82;;;-2.00;99.90;;;;;;5110734;28;20909;-72
2024/01/20 03:29:39;;;;;;;13.02;8.30;;;-2.10;99.90;;;;;;5112384;27;20204;-72
2024/01/20 03:32:08;;;;;;;11.90;6.00;;;-2.10;99.90;;;;;;5110397;28;20199;-72
2024/01/20 03:34:37;;;;;;;11.32;6.07;;;-2.00;99.90;;;;;;5111907;27;20202;-72
2024/01/20 03:37:06;;;;;;;8.45;6.15;;;-2.00;99.90;;;;;;5116795;27;20202;-72
2024/01/20 03:39:33;;;;;;;12.52;9.15;;;-2.20;99.90;;;;;;5118397;27;20209;-72
2024/01/20 03:42:00;;;;;;;9.77;6.28;;;-2.40;99.90;;;;;;5117727;27;20247;-72
2024/01/20 03:44:28;;;;;;;6.57;5.93;;;-2.20;99.90;;;;;;5112209;27;20692;-72
2024/01/20 03:46:56;;;;;;;16.55;7.93;;;-2.20;99.90;;;;;;5111700;27;20202;-72
2024/01/20 03:49:25;;;;;;;9.68;6.82;;;-2.10;99.90;;;;;;5114089;27;20414;-72
2024/01/20 03:51:53;;;;;;;12.93;7.38;;;-2.00;99.90;;;;;;5117452;27;20207;-72
2024/01/20 03:54:20;;;;;;;13.32;8.20;;;-2.00;99.90;;;;;;5114522;27;20223;-72
2024/01/20 03:56:47;;;;;;;7.75;6.93;;;-2.00;99.90;;;;;;5112245;27;20203;-72
2024/01/20 03:59:14;;;;;;;6.53;5.93;;;-2.10;99.90;;;;;;5113338;27;20278;-71
2024/01/20 04:01:40;;;;;;;8.30;5.90;;;-2.30;99.90;;;;;;5111647;27;20296;-72
2024/01/20 04:04:07;;;;;;;7.47;6.18;;;-2.40;99.90;;;;;;5119354;27;20201;-72
2024/01/20 04:06:36;;;;;;;7.75;5.20;;;-2.40;99.90;;;;;;5117245;27;20291;-72
2024/01/20 04:09:03;;;;;;;6.78;5.50;;;-2.50;99.90;;;;;;5118901;27;20777;-72
2024/01/20 04:11:30;;;;;;;17.73;6.63;;;-2.30;99.90;;;;;;5110837;27;20186;-72
2024/01/20 04:13:57;;;;;;;10.35;6.97;;;-2.30;99.90;;;;;;5114531;27;20285;-72
2024/01/20 04:16:24;;;;;;;9.15;4.95;;;-2.30;99.90;;;;;;5114593;27;20217;-72
2024/01/20 04:18:50;;;;;;;6.85;6.10;;;-2.10;99.90;;;;;;5120242;27;20199;-72
2024/01/20 04:21:17;;;;;;;9.27;6.65;;;-2.30;99.90;;;;;;5116885;27;20200;-72
2024/01/20 04:23:45;;;;;;;21.20;7.45;;;-2.40;99.90;;;;;;5116098;27;20201;-72
2024/01/20 04:26:12;;;;;;;10.73;8.05;;;-2.40;99.90;;;;;;5119803;27;20549;-72
2024/01/20 04:28:39;;;;;;;29.65;5.78;;;-2.30;99.90;;;;;;5114482;27;20222;-73
2024/01/20 04:31:06;;;;;;;13.57;6.22;;;-2.30;99.90;;;;;;5128127;27;20208;-73
2024/01/20 04:33:34;;;;;;;14.55;4.05;;;-2.30;99.90;;;;;;5125320;27;20305;-73
2024/01/20 04:36:01;;;;;;;9.90;5.28;;;-2.20;99.90;;;;;;5115666;27;20191;-70
2024/01/20 04:38:28;;;;;;;8.35;6.35;;;-2.30;99.90;;;;;;5117140;27;20225;-71
2024/01/20 04:40:56;;;;;;;6.32;4.43;;;-2.30;99.90;;;;;;5111053;27;20655;-71
2024/01/20 04:43:23;;;;;;;9.43;6.68;;;-2.40;99.90;;;;;;5125803;27;20206;-71
2024/01/20 04:45:50;;;;;;;9.02;6.53;;;-2.30;99.90;;;;;;5116828;27;20209;-72
2024/01/20 04:48:17;;;;;;;10.70;6.90;;;-2.30;99.90;;;;;;5111665;27;20305;-72
2024/01/20 04:50:43;;;;;;;10.20;7.53;;;-2.40;99.90;;;;;;5120610;27;20194;-72
2024/01/20 04:53:10;;;;;;;7.57;5.55;;;-2.50;99.90;;;;;;5119196;27;20225;-72
2024/01/20 04:55:37;;;;;;;6.50;5.90;;;-2.50;99.90;;;;;;5114182;27;20201;-72
2024/01/20 04:58:05;;;;;;;6.85;6.22;;;-2.40;99.90;;;;;;5105312;28;21231;-72
2024/01/20 05:00:32;;;;;;;11.88;6.85;;;-2.50;99.90;;;;;;5103235;28;20757;-72
2024/01/20 05:02:59;;;;;;;10.43;5.20;;;-2.40;99.90;;;;;;5106480;28;20201;-72
2024/01/20 05:05:26;;;;;;;11.52;5.60;;;-2.30;99.90;;;;;;5115128;27;20583;-72
2024/01/20 05:07:52;;;;;;;8.90;5.13;;;-2.30;99.90;;;;;;5115147;27;20302;-72
2024/01/20 05:10:20;;;;;;;11.73;6.78;;;-2.30;99.90;;;;;;5113516;27;20241;-72
2024/01/20 05:12:47;;;;;;;10.98;5.28;;;-2.50;99.90;;;;;;5103884;28;20277;-72
2024/01/20 05:15:16;;;;;;;7.63;5.85;;;-2.70;99.90;;;;;;5110158;27;20201;-72
2024/01/20 05:17:42;;;;;;;8.65;5.57;;;-2.70;99.90;;;;;;5109782;27;20194;-72
2024/01/20 05:20:13;;;;;;;7.00;5.55;;;-2.50;99.90;;;;;;5111381;27;20186;-72
2024/01/20 05:22:40;;;;;;;15.38;9.38;;;-2.40;99.90;;;;;;5110218;27;20207;-72
2024/01/20 05:25:08;;;;;;;12.88;6.38;;;-2.40;99.90;;;;;;5108676;28;20196;-72
2024/01/20 05:27:34;;;;;;;9.02;6.22;;;-2.40;99.90;;;;;;5107248;27;20218;-72
2024/01/20 05:30:01;;;;;;;8.98;7.70;;;-2.40;99.90;;;;;;5106097;28;20199;-72
2024/01/20 05:32:30;;;;;;;14.80;7.55;;;-2.40;99.90;;;;;;5124261;27;20198;-72
2024/01/20 05:34:56;;;;;;;27.90;10.70;;;-2.30;99.90;;;;;;5119090;27;20199;-72
2024/01/20 05:37:23;;;;;;;10.90;7.22;;;-2.50;99.90;;;;;;5125483;27;20200;-72
2024/01/20 05:39:51;;;;;;;12.70;6.30;;;-2.40;99.90;;;;;;5108662;28;20197;-72
2024/01/20 05:42:18;;;;;;;8.27;7.07;;;-2.50;99.90;;;;;;5104338;28;20572;-72
2024/01/20 05:44:44;;;;;;;23.55;8.38;;;-2.70;99.90;;;;;;5108583;28;20202;-72
2024/01/20 05:47:11;;;;;;;9.90;6.68;;;-2.70;99.90;;;;;;5107715;27;20207;-72
2024/01/20 05:49:39;;;;;;;9.07;6.68;;;-2.60;99.90;;;;;;5121388;28;20225;-72
2024/01/20 05:52:06;;;;;;;10.18;6.13;;;-2.40;99.90;;;;;;5111174;28;20545;-69
2024/01/20 05:54:33;;;;;;;7.10;5.30;;;-2.30;99.90;;;;;;5110770;28;20186;-68
2024/01/20 05:57:00;;;;;;;8.85;6.90;;;-2.40;99.90;;;;;;5103964;28;20191;-77
2024/01/20 05:59:27;;;;;;;14.63;8.85;;;-2.30;99.90;;;;;;5110019;28;20203;-75
2024/01/20 06:01:53;;;;;;;9.05;6.38;;;-2.40;99.90;;;;;;5107564;28;20997;-72
2024/01/20 06:04:20;;;;;;;7.78;5.95;;;-2.30;99.90;;;;;;5112797;28;20688;-73
2024/01/20 06:06:49;;;;;;;16.73;7.25;;;-2.40;99.90;;;;;;5112817;28;20219;-72
2024/01/20 06:09:16;;;;;;;13.35;8.52;;;-2.40;99.90;;;;;;5113435;27;20574;-73
2024/01/20 06:11:43;;;;;;;9.95;6.82;;;-2.30;99.90;;;;;;5108773;27;20194;-72
2024/01/20 06:14:09;;;;;;;12.90;8.18;;;-2.50;99.90;;;;;;5109276;28;20740;-73
2024/01/20 06:16:38;;;;;;;15.50;8.90;;;-2.40;99.90;;;;;;5113586;28;20198;-72
2024/01/20 06:19:06;;;;;;;13.25;9.27;;;-2.30;99.90;;;;;;5110029;28;20575;-73
2024/01/20 06:21:33;;;;;;;13.15;9.60;;;-2.40;99.90;;;;;;5109490;28;20194;-72
2024/01/20 06:24:01;;;;;;;11.88;7.93;;;-2.40;99.90;;;;;;5112396;28;20194;-72
2024/01/20 06:26:27;;;;;;;14.13;5.15;;;-2.30;99.90;;;;;;5107918;28;20198;-73
2024/01/20 06:28:54;;;;;;;11.75;6.63;;;-2.20;99.90;;;;;;5108417;28;20226;-72
2024/01/20 06:31:25;;;;;;;9.65;6.72;;;-2.30;99.90;;;;;;5113988;28;20266;-73
2024/01/20 06:33:52;;;;;;;11.85;7.68;;;-2.30;99.90;;;;;;5112915;28;20275;-73
2024/01/20 06:36:21;;;;;;;9.77;5.53;;;-2.40;99.90;;;;;;5115109;27;20198;-72
2024/01/20 06:38:48;;;;;;;9.88;6.53;;;-2.40;99.90;;;;;;5121819;27;20205;-73
2024/01/20 06:41:16;;;;;;;8.68;5.95;;;-2.30;99.90;;;;;;5115355;27;20197;-73
2024/01/20 06:43:43;;;;;;;14.32;8.38;;;-2.20;99.90;;;;;;5119510;27;20221;-72
2024/01/20 06:46:10;;;;;;;14.43;8.05;;;-2.40;99.90;;;;;;5111541;27;20198;-72
2024/01/20 06:48:36;;;;;;;5.00;4.55;;;-2.50;99.90;;;;;;5113218;27;20244;-73
2024/01/20 06:51:04;;;;;;;10.80;7.15;;;-2.40;99.90;;;;;;5115821;27;20195;-73
2024/01/20 06:53:32;;;;;;;8.80;6.97;;;-2.50;99.90;;;;;;5110071;27;20194;-73
2024/01/20 06:55:59;;;;;;;14.05;7.60;;;-2.40;99.90;;;;;;5110679;27;20202;-72
2024/01/20 06:58:27;;;;;;;17.23;7.15;;;-2.50;99.90;;;;;;5107695;27;20227;-72
2024/01/20 07:00:54;;;;;;;8.25;5.65;;;-2.70;99.90;;;;;;5115889;27;20895;-72
2024/01/20 07:03:22;;;;;;;12.38;7.15;;;-2.80;99.90;;;;;;5109514;27;20230;-71
2024/01/20 07:05:49;;;;;;;10.98;7.03;;;-2.70;99.90;;;;;;5104748;27;20201;-71
2024/01/20 07:08:15;;;;;;;11.98;8.52;;;-2.60;99.90;;;;;;5106873;27;20227;-71
2024/01/20 07:10:42;;;;;;;12.05;7.22;;;-2.60;99.90;;;;;;5110208;27;20194;-71
2024/01/20 07:13:09;;;;;;;11.65;6.57;;;-2.60;99.90;;;;;;5112152;27;20195;-71
2024/01/20 07:15:38;;;;;;;11.88;8.95;;;-2.60;99.90;;;;;;5108839;27;20290;-71
2024/01/20 07:18:05;;;;;;;16.88;8.43;;;-2.60;99.90;;;;;;5101894;27;20229;-71
2024/01/20 07:20:31;;;;;;;9.98;8.25;;;-2.70;99.90;;;;;;5111644;27;20312;-71
2024/01/20 07:22:58;;;;;;;11.15;8.52;;;-2.70;99.90;;;;;;5101935;27;20190;-71
2024/01/20 07:25:25;;;;;;;11.55;8.73;;;-2.70;99.90;;;;;;5107285;27;20204;-73
2024/01/20 07:27:52;;;;;;;6.22;5.72;;;-2.70;99.90;;;;;;5102275;27;20210;-73
2024/01/20 07:30:19;;;;;;;11.98;6.18;;;-2.70;99.90;;;;;;5110665;27;20293;-74
2024/01/20 07:32:47;;;;;;;10.80;7.63;;;-3.00;99.90;;;;;;5118562;27;20194;-72
2024/01/20 07:35:14;;;;;;;9.50;7.15;;;-3.00;99.90;;;;;;5121881;27;20656;-73
2024/01/20 07:37:41;;;;;;;12.38;6.18;;;-2.80;99.90;;;;;;5107751;27;20199;-76
2024/01/20 07:40:09;;;;;;;15.30;7.90;;;-2.70;99.90;;;;;;5103557;27;20614;-71
2024/01/20 07:42:36;;;;;;;11.15;7.53;;;-2.90;99.90;;;;;;5112993;27;20207;-75
2024/01/20 07:45:03;;;;;;;10.43;6.90;;;-3.00;99.90;;;;;;5124091;27;20204;-71
2024/01/20 07:47:30;;;;;;;14.88;7.38;;;-2.80;99.90;;;;;;5109220;27;20215;-70
2024/01/20 07:49:58;;;;;;;9.27;7.95;;;-2.70;99.90;;;;;;5111278;27;20226;-70
2024/01/20 07:52:25;;;;;;;10.50;7.68;;;-2.60;99.90;;;;;;5105790;27;20567;-71
2024/01/20 07:54:52;;;;;;;10.65;6.88;;;-2.60;99.90;;;;;;5112255;27;20272;-72
2024/01/20 07:57:19;;;;;;;12.43;7.95;;;-2.60;99.90;;;;;;5114072;27;20203;-71
2024/01/20 07:59:45;;;;;;;9.80;8.02;;;-2.60;99.90;;;;;;5103814;27;20199;-72
2024/01/20 08:02:13;;;;;;;10.85;9.00;;;-2.60;99.90;;;;;;5111523;27;20194;-72
2024/01/20 08:04:39;;;;;;;10.93;7.97;;;-2.60;99.90;;;;;;5111492;27;20663;-75
2024/01/20 08:07:07;;;;;;;8.43;7.60;;;-2.60;99.90;;;;;;5112922;27;20282;-73
2024/01/20 08:09:34;;;;;;;11.23;6.13;;;-2.60;99.90;;;;;;5112403;27;20683;-73
2024/01/20 08:12:01;;;;;;;13.80;9.52;;;-2.70;99.90;;;;;;5109831;27;20194;-73
2024/01/20 08:14:28;;;;;;;11.60;7.30;;;-2.70;99.90;;;;;;5110042;27;20194;-70
2024/01/20 08:16:55;;;;;;;17.38;10.75;;;-2.50;99.90;;;;;;5108022;27;20193;-70
2024/01/20 08:19:21;;;;;;;9.32;7.47;;;-2.50;99.90;;;;;;5112185;27;20205;-70
2024/01/20 08:21:48;;;;;;;8.43;5.45;;;-2.50;99.90;;;;;;5103958;27;20708;-70
2024/01/20 08:24:16;;;;;;;10.48;6.60;;;-2.60;99.90;;;;;;5106236;27;20546;-70
2024/01/20 08:26:45;;;;;;;9.48;6.65;;;-2.80;99.90;;;;;;5099115;27;20260;-71
2024/01/20 08:29:12;;;;;;;13.93;6.40;;;-3.10;99.90;;;;;;5103269;27;20294;-74
2024/01/20 08:31:39;;;;;;;10.90;8.38;;;-3.10;99.90;;;;;;5106745;28;20732;-79
2024/01/20 08:34:05;;;;;;;18.88;9.85;;;-3.00;99.90;;;;;;5109390;27;20632;-73
2024/01/20 08:36:32;;;;;;;9.60;7.20;;;-3.00;99.90;;;;;;5104605;27;20195;-72
2024/01/20 08:38:59;;;;;;;8.05;6.50;;;-2.90;99.90;;;;;;5122857;27;20197;-75
2024/01/20 08:41:27;;;;;;;8.05;6.22;;;-2.70;99.90;;;;;;5119302;27;20201;-73
2024/01/20 08:43:54;;;;;;;8.88;7.28;;;-2.60;99.90;;;;;;5123174;27;20239;-75
2024/01/20 08:46:21;;;;;;;11.57;8.57;;;-2.60;99.90;;;;;;5116068;27;20212;-78
2024/01/20 08:48:47;;;;;;;9.90;6.53;;;-2.60;99.90;;;;;;5116456;27;20229;-80
2024/01/20 08:51:14;;;;;;;10.90;8.63;;;-2.50;99.90;;;;;;5105433;27;20248;-75
2024/01/20 08:53:41;;;;;;;28.48;7.15;;;-2.60;99.90;;;;;;5110974;27;20650;-74
2024/01/20 08:56:08;;;;;;;13.18;7.35;;;-2.50;99.90;;;;;;5095504;27;20284;-72
2024/01/20 08:58:39;;;;;;;11.50;8.98;;;-2.50;99.90;;;;;;5098614;27;20214;-71
2024/01/20 09:03:49;;;;;;;17.58;8.10;;;-2.40;99.90;;;;;;5108606;27;20292;-72
2024/01/20 09:06:16;;;;;;;9.27;7.75;;;-2.60;99.90;;;;;;5116532;27;20190;-72
2024/01/20 09:08:42;;;;;;;10.27;6.80;;;-2.50;99.90;;;;;;5107246;27;20221;-71
2024/01/20 09:11:09;;;;;;;5.43;4.95;;;-2.60;99.90;;;;;;5102705;27;20209;-70
2024/01/20 09:13:36;;;;;;;11.40;5.60;;;-2.50;99.90;;;;;;5107995;27;20293;-70
2024/01/20 09:16:05;;;;;;;8.90;5.20;;;-2.30;99.90;;;;;;5105328;27;20199;-70
2024/01/20 09:18:31;;;;;;;15.55;8.05;;;-2.40;99.90;;;;;;5105047;27;20195;-70
2024/01/20 09:20:58;;;;;;;11.90;9.20;;;-2.30;99.90;;;;;;5100875;27;20225;-71
2024/01/20 09:23:25;;;;;;;9.45;6.20;;;-2.10;99.90;;;;;;5096055;27;20339;-71
2024/01/20 09:25:52;;;;;;;18.00;8.93;;;-2.10;99.90;;;;;;5104988;27;20203;-71
2024/01/20 09:28:19;;;;;;;12.18;7.72;;;-2.10;99.90;;;;;;5108254;27;20206;-71
2024/01/20 09:30:46;;;;;;;20.55;5.60;;;-2.10;99.90;;;;;;5108717;27;20224;-71
2024/01/20 09:33:14;;;;;;;12.63;6.00;;;-2.00;99.90;;;;;;5119099;27;20273;-71
2024/01/20 09:35:43;;;;;;;13.93;7.63;;;-2.00;99.90;;;;;;5107675;27;20287;-71
2024/01/20 09:38:10;;;;;;;15.60;9.35;;;-2.00;99.90;;;;;;5113678;27;20201;-71
2024/01/20 09:40:39;;;;;;;11.93;6.22;;;-1.90;99.90;;;;;;5113608;27;20202;-71
2024/01/20 09:43:06;;;;;;;19.40;9.68;;;-1.80;99.90;;;;;;5125402;27;20188;-71
2024/01/20 09:45:38;;;;;;;11.85;6.22;;;-1.60;99.90;;;;;;5112230;27;20210;-71
2024/01/20 09:48:06;;;;;;;9.65;5.40;;;-1.70;99.90;;;;;;5109560;28;20202;-71
2024/01/20 09:50:34;;;;;;;9.23;5.85;;;-2.10;99.60;;;;;;5114294;27;20316;-71
2024/01/20 09:53:08;;;;;;;14.20;8.00;;;-2.00;99.90;;;;;;5117832;27;20198;-71
2024/01/20 09:56:19;;;;;;;10.00;6.75;;;-2.10;99.90;;;;;;5109641;28;20204;-72
2024/01/20 09:58:46;;;;;;;11.18;5.88;;;-1.90;99.90;;;;;;5097010;28;20201;-72
2024/01/20 10:01:13;;;;;;;14.77;9.25;;;-1.70;99.90;;;;;;5098869;28;20191;-72
2024/01/20 10:03:42;;;;;;;15.82;8.93;;;-1.70;99.90;;;;;;5103864;28;20281;-72
2024/01/20 10:06:10;;;;;;;11.48;8.45;;;-1.80;99.90;;;;;;5101031;28;20196;-72
2024/01/20 10:08:37;;;;;;;9.00;5.82;;;-1.60;99.90;;;;;;5103324;28;20203;-72
2024/01/20 10:11:04;;;;;;;17.58;6.35;;;-1.60;99.90;;;;;;5102828;27;20215;-72
2024/01/20 10:13:31;;;;;;;13.93;9.60;;;-1.60;99.80;;;;;;5106117;27;20670;-72
2024/01/20 10:15:58;;;;;;;15.80;9.57;;;-1.60;99.70;;;;;;5103290;27;20194;-71
2024/01/20 10:18:25;;;;;;;8.55;6.10;;;-1.50;99.60;;;;;;5108169;27;20281;-71
2024/01/20 10:21:02;;;;;;;8.32;6.45;;;-1.50;99.80;;;;;;5105621;27;20242;-71
2024/01/20 10:23:30;;;;;;;11.50;7.53;;;-1.50;99.80;;;;;;5114840;27;20256;-71
2024/01/20 10:26:01;;;;;;;20.95;8.43;;;-1.50;99.70;;;;;;5109992;27;20207;-71
2024/01/20 10:28:28;;;;;;;12.50;5.70;;;-1.50;99.50;;;;;;5112883;27;20204;-71
2024/01/20 10:30:55;;;;;;;9.90;6.47;;;-1.60;99.70;;;;;;5104186;27;20249;-71
2024/01/20 10:33:22;;;;;;;9.52;7.30;;;-1.50;99.90;;;;;;5118034;27;20204;-71
2024/01/20 10:35:50;;;;;;;9.98;7.53;;;-1.40;99.70;;;;;;5123808;27;20224;-71
2024/01/20 10:38:20;;;;;;;16.23;8.30;;;-1.60;99.70;;;;;;5127761;27;20194;-71
2024/01/20 10:40:51;;;;;;;9.02;5.60;;;-1.60;99.90;;;;;;5110658;27;20522;-71
2024/01/20 10:43:18;;;;;;;11.52;7.57;;;-1.50;99.90;;;;;;5128539;27;20300;-71
2024/01/20 10:45:53;;;;;;;8.80;6.85;;;-1.50;99.90;;;;;;5118879;27;20277;-71
2024/01/20 10:48:25;;;;;;;11.43;7.10;;;-1.70;99.70;;;;;;5116760;27;20210;-72
2024/01/20 10:50:57;;;;;;;15.07;9.45;;;-1.60;99.90;;;;;;5119438;27;20239;-72
2024/01/20 10:53:25;;;;;;;8.95;8.07;;;-1.60;99.90;;;;;;5123554;27;20194;-72
2024/01/20 10:55:54;;;;;;;11.02;6.22;;;-1.50;99.90;;;;;;5123655;27;20553;-71
2024/01/20 10:58:27;;;;;;;15.88;7.32;;;-1.40;99.90;;;;;;5121188;27;20197;-72
2024/01/20 11:00:55;;;;;;;12.93;7.93;;;-1.40;99.90;;;;;;5119200;27;20314;-72
2024/01/20 11:03:22;;;;;;;12.20;7.45;;;-1.30;99.90;;;;;;5117490;27;20197;-71
2024/01/20 11:05:49;;;;;;;15.18;8.38;;;-1.20;99.70;;;;;;5118352;27;20202;-71
2024/01/20 11:08:24;;;;;;;9.63;6.88;;;-1.20;99.40;;;;;;5115145;27;20205;-70
2024/01/20 11:10:55;;;;;;;6.80;6.07;;;-1.20;99.70;;;;;;5102603;27;20245;-71
2024/01/20 11:13:25;;;;;;;11.85;7.05;;;-1.20;99.90;;;;;;5101943;27;20204;-71
2024/01/20 11:15:52;;;;;;;10.00;6.28;;;-1.10;99.90;;;;;;5108192;27;20205;-71
2024/01/20 11:18:20;;;;;;;13.32;7.50;;;-1.10;99.90;;;;;;5097821;27;20330;-71
2024/01/20 11:20:56;;;;;;;10.30;7.35;;;-1.00;99.80;;;;;;5100123;27;20806;-72
2024/01/20 11:23:23;;;;;;;11.77;7.25;;;-1.00;99.70;;;;;;5099318;27;20707;-73
2024/01/20 11:25:50;;;;;;;9.98;7.38;;;-0.90;99.70;;;;;;5099452;27;20203;-67
2024/01/20 11:28:25;;;;;;;11.25;10.15;;;-0.90;99.70;;;;;;5096171;27;20237;-71
2024/01/20 11:30:52;;;;;;;19.20;8.25;;;-0.90;99.90;;;;;;5098603;27;20254;-72
2024/01/20 11:33:21;;;;;;;11.93;7.55;;;-0.80;99.80;;;;;;5092949;27;20345;-71
2024/01/20 11:35:51;;;;;;;14.63;8.98;;;-0.80;99.30;;;;;;5104701;27;20201;-71
2024/01/20 11:38:19;;;;;;;14.40;7.22;;;-0.80;99.10;;;;;;5110211;27;20720;-72
2024/01/20 11:40:46;;;;;;;9.85;7.35;;;-0.70;99.30;;;;;;5108848;27;20470;-72
2024/01/20 11:43:12;;;;;;;10.20;8.32;;;-0.70;99.20;;;;;;5121399;27;20587;-72
2024/01/20 11:45:41;;;;;;;12.98;7.85;;;-0.70;99.20;;;;;;5108574;27;20205;-79
2024/01/20 11:48:08;;;;;;;15.80;7.05;;;-0.60;99.40;;;;;;5113887;27;20751;-72
2024/01/20 11:50:35;;;;;;;11.90;6.55;;;-0.50;99.40;;;;;;5100788;27;20310;-69
2024/01/20 11:53:02;;;;;;;11.90;7.70;;;-0.40;99.20;;;;;;5107014;27;20213;-68
2024/01/20 11:55:29;;;;;;;10.63;7.47;;;-0.40;99.00;;;;;;5115188;27;20293;-69
2024/01/20 11:57:56;;;;;;;14.88;8.25;;;-0.40;98.90;;;;;;5112866;27;20201;-69
2024/01/20 12:00:23;;;;;;;8.60;7.72;;;-0.30;98.70;;;;;;5113340;27;20207;-70
2024/01/20 12:02:52;;;;;;;19.67;10.40;;;-0.20;98.70;;;;;;5112615;27;20204;-71
2024/01/20 12:05:20;;;;;;;15.40;8.80;;;-0.20;98.40;;;;;;5110788;27;20199;-68
2024/01/20 12:07:47;;;;;;;13.65;7.53;;;-0.10;98.00;;;;;;5116194;27;20201;-72
2024/01/20 12:10:16;;;;;;;10.68;7.28;;;0.00;97.50;;;;;;5111563;27;20235;-74
2024/01/20 12:12:43;;;;;;;16.48;9.45;;;0.10;97.60;;;;;;5108864;27;20613;-73
2024/01/20 12:15:10;;;;;;;13.48;8.35;;;0.00;97.90;;;;;;5112031;27;20194;-74
2024/01/20 12:17:37;;;;;;;16.33;9.60;;;0.00;98.20;;;;;;5107460;27;20536;-74
2024/01/20 12:20:06;;;;;;;20.55;11.00;;;0.00;98.30;;;;;;5106438;27;20190;-75
2024/01/20 12:22:33;;;;;;;15.50;9.85;;;0.10;98.40;;;;;;5107458;27;20206;-72
2024/01/20 12:25:00;;;;;;;12.10;9.82;;;0.10;98.30;;;;;;5106537;27;20202;-71
2024/01/20 12:27:27;;;;;;;17.55;9.63;;;0.10;98.40;;;;;;5112868;27;20287;-69
2024/01/20 12:29:54;;;;;;;11.73;7.85;;;0.10;98.40;;;;;;5112994;27;20307;-71
2024/01/20 12:32:21;;;;;;;14.82;7.95;;;0.20;98.50;;;;;;5100430;28;20201;-70
2024/01/20 12:34:48;;;;;;;10.00;7.50;;;0.10;98.40;;;;;;5100835;27;20201;-71
2024/01/20 12:37:16;;;;;;;16.52;10.45;;;0.20;98.10;;;;;;5115838;27;20672;-71
2024/01/20 12:39:43;;;;;;;32.95;9.57;;;0.30;98.30;;;;;;5129160;27;20558;-71
2024/01/20 12:42:09;;;;;;;18.88;10.45;;;0.30;98.40;;;;;;5128197;27;20280;-71
2024/01/20 12:44:36;;;;;;;14.40;8.70;;;0.30;98.50;;;;;;5128363;27;20213;-71